Estació municipal de Les Masies de Roda (Osona, Ter)

Consulta les dades en temps real de l'estació municipal de Les Masies de Roda





Hora UTC 12:35
Temperatura 39.0 ºC
Sòl 15 cm 46.2 ºC
Humitat 16.1 %
Pressió 1020.2 hPa
Pluja 0.0 mm
Velocitat vent 11.3 km/h
Direcció vent W
Radiació solar 147.4 W/m²

Dades diàries 2026-09-06



Hora UTC (hivern +1h; estiu +2h)
Temperatura (ºC) Humitat (%) Pressió (hPa) Velocitat vent (km/h) Precipitació (mm) Radiació solar (W/m²)
Hora UTC Aire Sòl 15 cm Humitat Pressió Vel. Dir. Vel. Max Dir. Intent. màx 5 min. Rad. Sol.
00:05 19.1 16.6 74.0 1022.5 0.8 NNW 0.8 NNW 0.0 0.1
00:10 18.9 16.5 74.7 1022.3 0.0 NNE 0.0 NNW 0.0 0.1
00:15 18.8 16.3 75.5 1022.5 0.0 NNE 0.0 NNW 0.0 0.1
00:20 18.9 16.3 75.2 1022.3 0.0 NNE 0.0 NNW 0.0 0.1
00:25 18.9 16.2 74.6 1022.4 0.5 NE 2.5 NE 0.0 0.1
00:30 19.0 16.2 74.1 1022.4 1.2 ENE 3.2 ENE 0.0 0.1
00:35 19.1 16.1 72.9 1022.3 3.4 ENE 4.6 ENE 0.0 0.1
00:40 19.5 16.1 71.7 1022.4 0.9 ENE 2.8 ENE 0.0 0.1
00:45 19.2 16.2 72.4 1022.3 0.0 NNE 0.0 ENE 0.0 0.1
00:50 18.7 16.1 74.2 1022.4 0.0 NNE 0.0 ENE 0.0 0.1
00:55 18.5 15.9 75.2 1022.2 0.0 NNE 0.0 ENE 0.0 0.1
01:00 18.4 15.8 75.7 1022.4 0.7 E 2.5 ENE 0.0 0.1
01:05 18.4 15.7 75.8 1022.2 0.0 NNE 0.0 E 0.0 0.1
01:10 18.5 15.7 75.4 1022.3 0.0 NNE 0.0 E 0.0 0.1
01:15 18.5 15.7 75.5 1022.1 0.1 E 1.8 E 0.0 0.1
01:20 18.4 15.6 75.8 1022.2 0.0 NNE 0.0 E 0.0 0.1
01:25 18.3 15.6 77.1 1022.2 0.2 NW 1.8 NW 0.0 0.1
01:30 18.1 15.5 78.8 1022.2 0.0 NNE 0.0 NW 0.0 0.1
01:35 18.1 15.5 78.2 1022.2 0.0 NNE 0.0 NW 0.0 0.1
01:40 18.2 15.4 77.5 1022.1 0.0 NNE 0.0 NW 0.0 0.1
01:45 18.1 15.4 77.6 1022.2 1.3 NW 3.2 NW 0.0 0.1
01:50 17.8 15.4 78.8 1022.1 2.1 NW 2.8 WNW 0.0 0.1
01:55 17.7 15.3 79.1 1022.2 1.7 NW 2.8 NW 0.0 0.1
02:00 17.7 15.2 79.2 1022.1 0.0 NNE 0.0 NW 0.0 0.1
02:05 17.7 15.1 79.1 1022.3 0.0 NNE 0.0 NW 0.0 0.1
02:10 17.7 15.1 79.4 1022.1 0.0 NNE 0.0 NW 0.0 0.1
02:15 17.6 15.0 79.8 1022.3 0.0 NNE 1.1 NNE 0.0 0.1
02:20 17.5 15.0 80.0 1022.1 0.0 NNE 0.0 N 0.0 0.1
02:25 17.4 14.9 79.6 1022.2 0.0 NNE 0.0 N 0.0 0.1
02:30 17.1 14.8 81.0 1022.1 0.0 NNE 0.0 N 0.0 0.1
02:35 17.1 14.7 82.3 1022.2 0.0 NNE 0.0 N 0.0 157.7
02:40 17.0 14.6 82.7 1022.0 0.3 E 2.1 E 0.0 199.2
02:45 17.4 14.6 81.9 1022.1 1.3 ENE 2.5 ENE 0.0 247.4
02:50 17.5 14.7 80.3 1022.0 0.3 NE 2.8 NE 0.0 254.3
02:55 17.4 14.7 80.9 1022.0 0.0 NNE 0.0 NE 0.0 262.3
03:00 17.2 14.6 81.4 1022.1 0.0 NNE 0.0 NE 0.0 252.6
03:05 17.2 14.5 81.7 1022.1 0.0 NNE 0.0 NE 0.0 255.2
03:10 17.2 14.4 81.7 1022.1 0.0 NNE 0.0 NNE 0.0 256.0
03:15 17.1 14.3 82.1 1022.0 1.7 WNW 3.2 WNW 0.0 257.3
03:20 16.8 14.3 84.0 1022.1 1.9 WNW 2.8 WNW 0.0 260.7
03:25 16.8 14.2 83.9 1022.0 0.2 NNW 2.1 NW 0.0 269.0
03:30 17.0 14.2 82.7 1022.1 0.0 NNE 1.4 NNE 0.0 256.1
03:35 16.9 14.2 81.9 1021.9 0.0 NNE 0.0 N 0.0 252.2
03:40 16.6 14.1 83.5 1022.1 0.0 NNE 0.0 N 0.0 252.1
03:45 16.4 14.0 84.5 1021.9 0.0 NNE 0.0 N 0.0 249.5
03:50 16.4 14.0 84.7 1022.0 0.0 NNE 0.0 N 0.0 250.8
03:55 16.4 13.9 84.6 1021.8 0.0 NNE 0.0 N 0.0 254.6
04:00 16.5 13.9 84.9 1022.0 0.0 NNE 0.0 N 0.0 253.0
04:05 16.7 13.9 83.2 1021.8 0.0 NNE 0.0 N 0.0 256.8
04:10 16.6 13.9 83.8 1021.9 1.0 ENE 2.8 ENE 0.0 269.7
04:15 16.4 13.8 83.7 1021.8 1.0 ENE 2.5 ENE 0.0 253.9
04:20 16.3 13.7 84.9 1021.9 0.0 NNE 0.0 ENE 0.0 243.7
04:25 16.2 13.7 84.9 1021.7 0.0 NNE 0.0 NNE 0.0 257.9
04:30 16.1 13.6 85.2 1021.9 0.0 NNE 0.0 NNE 0.0 258.7
04:35 16.2 13.5 85.1 1021.7 0.7 NE 2.8 NE 0.0 253.8
04:40 16.5 13.6 83.7 1021.8 0.3 NE 1.8 NE 0.0 256.8
04:45 16.2 13.6 83.7 1021.7 0.0 NNE 0.0 N 0.0 258.0
04:50 15.9 13.6 85.5 1021.8 0.0 NNE 0.0 N 0.0 255.1
04:55 15.8 13.5 85.8 1021.7 0.0 NNE 0.0 N 0.0 254.1
05:00 15.6 13.3 87.1 1021.8 0.0 NNE 0.0 N 0.0 257.7
05:05 15.6 13.3 87.2 1021.6 0.0 NNE 0.0 N 0.0 257.6
05:10 15.7 13.2 86.9 1021.8 0.0 NNE 0.0 N 0.0 260.2
05:15 15.6 13.1 87.6 1021.7 0.0 NNE 0.0 N 0.0 262.4
05:20 15.6 13.2 88.3 1021.9 0.0 NNE 0.0 N 0.0 253.8
05:25 15.7 13.2 88.4 1021.8 0.0 NNE 0.0 N 0.0 141.0
05:30 15.6 13.2 86.9 1021.9 0.5 WNW 2.8 WNW 0.0 7.1
05:35 15.4 13.2 88.2 1021.8 0.9 NW 3.2 NW 0.0 10.8
05:40 15.4 13.2 88.4 1021.9 0.2 NW 2.1 NW 0.0 15.5
05:45 15.7 13.3 88.7 1021.9 0.0 NNE 0.0 N 0.0 21.0
05:50 15.9 13.5 87.4 1022.0 0.0 NNE 0.0 N 0.0 28.5
05:55 15.9 13.6 86.4 1021.9 0.0 NNE 0.0 N 0.0 35.8
06:00 15.9 13.8 86.7 1022.0 0.0 NNE 0.0 N 0.0 45.6
06:05 16.0 14.0 86.8 1022.0 0.0 NNE 0.0 N 0.0 55.2
06:10 16.1 14.2 86.7 1022.0 1.0 ENE 3.2 ENE 0.0 65.0
06:15 16.3 14.6 86.4 1022.0 2.4 E 4.2 ENE 0.0 75.6
06:20 17.1 15.0 84.1 1022.1 0.1 ENE 1.8 ENE 0.0 87.6
06:25 17.2 15.4 84.2 1022.1 0.0 NNE 0.0 ENE 0.0 99.0
06:30 17.4 15.9 83.5 1022.2 0.0 NNE 0.0 ENE 0.0 112.8
06:35 17.7 16.4 83.5 1022.1 1.6 ENE 2.5 ENE 0.0 126.2
06:40 18.0 17.0 82.8 1022.3 0.8 ENE 1.8 ENE 0.0 138.3
06:45 18.4 17.7 80.3 1022.1 0.1 ENE 1.4 ENE 0.0 153.4
06:50 18.8 18.5 78.9 1022.3 0.0 NNE 0.0 ENE 0.0 168.3
06:55 19.3 19.2 76.4 1022.1 0.0 NNE 0.0 ENE 0.0 182.1
07:00 19.7 19.9 74.3 1022.4 0.7 SW 2.5 WSW 0.0 194.8
07:05 20.1 20.4 71.6 1022.2 0.2 SSW 2.1 SSW 0.0 212.0
07:10 20.8 21.0 67.9 1022.3 0.4 S 4.2 S 0.0 209.9
07:15 21.1 21.5 66.9 1022.3 2.3 SSE 4.2 S 0.0 243.1
07:20 21.1 21.9 66.9 1022.2 1.5 SSE 4.6 SSE 0.0 260.2
07:25 21.2 22.4 65.5 1022.3 2.3 ESE 5.0 SSE 0.0 276.0
07:30 21.4 22.9 67.0 1022.1 2.2 SW 5.0 WSW 0.0 294.0
07:35 21.8 23.4 66.9 1022.3 2.8 WSW 5.7 WSW 0.0 293.1
07:40 21.7 23.7 65.3 1022.2 0.0 NNE 0.0 W 0.0 297.1
07:45 21.8 24.0 66.8 1022.2 1.3 W 3.5 WNW 0.0 318.2
07:50 22.3 24.5 65.0 1022.2 3.4 WSW 5.7 WSW 0.0 314.8
07:55 22.5 25.0 64.4 1022.0 4.3 WSW 6.4 WSW 0.0 335.5
08:00 22.9 25.4 62.5 1022.2 3.5 SSW 5.3 SW 0.0 340.7
08:05 23.3 25.9 61.1 1022.0 3.9 WSW 5.7 WSW 0.0 291.3
08:10 23.4 26.2 59.5 1022.2 2.7 SSW 5.3 SSW 0.0 342.4
08:15 24.0 26.6 58.4 1022.1 3.5 S 5.0 SSW 0.0 362.9
08:20 24.4 27.2 56.7 1022.1 2.9 S 5.0 SW 0.0 118.4
08:25 24.6 27.9 55.5 1022.2 1.6 SW 3.9 SW 0.0 68.9
08:30 24.6 28.4 54.5 1022.0 0.4 NE 2.8 ENE 0.0 71.3
08:35 25.0 29.1 52.5 1022.2 1.3 ENE 3.5 ENE 0.0 252.8
08:40 25.4 29.5 52.3 1022.1 0.2 WSW 2.5 W 0.0 485.7
08:45 25.7 29.7 51.4 1022.0 0.6 SSE 2.5 SSW 0.0 481.1
08:50 26.1 30.0 51.1 1022.2 1.3 WNW 3.5 WSW 0.0 506.0
08:55 26.2 30.4 50.1 1022.0 0.2 E 2.5 ESE 0.0 523.5
09:00 26.8 31.2 48.7 1022.1 0.6 SE 2.8 S 0.0 342.2
09:05 27.4 31.8 47.2 1022.1 0.1 SSW 1.8 WSW 0.0 113.7
09:10 27.6 32.6 48.1 1021.9 3.2 WSW 5.7 SW 0.0 111.7
09:15 27.9 33.1 46.5 1022.0 2.4 SW 5.0 SW 0.0 123.8
09:20 28.2 33.6 45.8 1022.1 1.8 SSW 4.6 S 0.0 143.2
09:25 28.5 34.0 44.9 1021.9 1.9 SSW 4.2 SSW 0.0 305.8
09:30 28.3 34.2 45.7 1021.8 1.3 SSW 4.2 S 0.0 179.9
09:35 28.8 34.5 44.6 1022.0 3.2 S 6.4 S 0.0 120.3
09:40 29.4 34.9 44.5 1022.0 1.4 SSW 4.2 SSW 0.0 112.0
09:45 30.1 35.5 42.4 1021.8 1.4 S 3.5 SW 0.0 102.4
09:50 30.1 35.9 42.2 1021.6 1.6 W 3.9 WNW 0.0 91.5
09:55 30.4 36.3 43.1 1021.7 3.2 SSW 7.1 SW 0.0 86.8
10:00 31.0 36.9 41.3 1021.9 3.1 S 6.4 S 0.0 91.7
10:05 31.3 37.3 39.5 1021.8 1.8 S 3.5 S 0.0 90.4
10:10 31.6 37.8 38.3 1021.6 1.8 NNW 5.3 NNE 0.0 78.1
10:15 31.6 38.2 37.8 1021.4 1.5 ESE 4.6 SE 0.0 89.5
10:20 32.2 38.6 35.2 1021.4 2.7 SE 5.0 SSE 0.0 91.6
10:25 32.5 39.0 33.5 1021.5 1.9 E 6.0 NE 0.0 93.6
10:30 32.3 39.2 33.9 1021.5 2.9 N 6.7 NNE 0.0 100.4
10:35 32.4 39.1 34.6 1021.5 1.0 NNW 4.6 W 0.0 105.6
10:40 33.3 39.8 32.2 1021.3 3.2 SSW 7.4 SSW 0.0 118.1
10:45 33.8 40.3 30.0 1021.1 2.1 SSW 5.3 SSW 0.0 110.0
10:50 33.9 40.6 31.0 1021.0 2.7 SW 7.4 ESE 0.0 108.6
10:55 34.5 41.0 29.0 1021.0 2.6 S 7.1 E 0.0 112.9
11:00 34.2 41.3 30.5 1021.0 3.7 WNW 8.1 WSW 0.0 113.4
11:05 34.0 41.2 29.9 1021.0 3.9 NNW 9.9 NNW 0.0 109.4
11:10 34.3 41.1 29.9 1021.0 2.5 WNW 6.4 W 0.0 100.3
11:15 35.1 41.6 30.6 1021.0 4.9 W 9.9 WNW 0.0 101.6
11:20 35.5 42.3 28.9 1021.0 3.8 W 7.1 SSE 0.0 107.1
11:25 36.0 42.8 26.9 1020.9 2.4 WNW 6.7 W 0.0 112.2
11:30 36.7 43.4 27.3 1020.8 3.8 W 7.8 W 0.0 121.3
11:35 37.0 44.0 25.6 1020.8 5.7 WSW 9.2 W 0.0 125.1
11:40 37.1 44.2 22.5 1020.7 6.4 S 10.6 S 0.0 149.1
11:45 37.4 44.3 24.1 1020.6 5.5 WSW 9.9 WNW 0.0 157.9
11:50 37.3 44.4 20.5 1020.5 5.5 WSW 13.8 SSW 0.0 145.1
11:55 37.3 44.6 19.0 1020.4 2.9 NNW 6.4 NW 0.0 147.5
12:00 37.9 44.8 21.6 1020.4 5.0 WSW 12.0 WSW 0.0 144.7
12:05 38.5 45.5 20.0 1020.4 7.0 SSW 12.0 WSW 0.0 166.7
12:10 38.6 45.9 18.0 1020.4 7.2 SSW 18.7 SSW 0.0 168.8
12:15 38.8 45.9 15.5 1020.3 12.8 SSW 24.4 S 0.0 172.4
12:20 39.0 45.9 16.4 1020.2 11.1 SW 24.0 W 0.0 165.8
12:25 39.1 45.9 15.5 1020.3 11.4 SW 21.9 WSW 0.0 157.3
12:30 39.0 46.2 15.1 1020.2 11.3 SW 23.0 SW 0.0 149.7
12:35 39.0 46.2 16.1 1020.2 11.3 W 21.2 SW 0.0 147.4
Màxima 39.1 46.2 88.7 1022.5 12.8 SSW 24.4 S 0.0 523.5
Mínima 15.4 13.1 15.1 1020.2
Total 0.0